Time;durP1;ratioP1;P1;durP2;ratioP2;P2;SDS_P1;SDS_P2;PMS_P1;PMS_P2;Temp;Humidity;BMP_temperature;BMP_pressure;BME280_temperature;BME280_humidity;BME280_pressure;Samples;Min_cycle;Max_cycle;Signal;HPM_P1;HPM_P2
2024/03/08 00:01:07;;;;;;;0.00;0.00;;;;;;;5.55;100.00;94800.44;10387095;28;20025;-78
2024/03/08 00:06:07;;;;;;;0.00;0.00;;;;;;;5.64;100.00;94800.88;10387346;28;20038;-78
2024/03/08 00:11:08;;;;;;;0.00;0.00;;;;;;;5.65;100.00;94800.63;10370291;28;20275;-77
2024/03/08 00:16:09;;;;;;;0.00;0.00;;;;;;;5.67;100.00;94799.59;10387459;28;20025;-77
2024/03/08 00:21:10;;;;;;;0.00;0.00;;;;;;;5.66;100.00;94798.75;10386943;28;20105;-78
2024/03/08 00:26:10;;;;;;;0.00;0.00;;;;;;;5.65;100.00;94797.97;10387017;28;20413;-78
2024/03/08 00:31:10;;;;;;;0.00;0.00;;;;;;;5.65;100.00;94794.47;10386886;28;20523;-77
2024/03/08 00:36:11;;;;;;;0.80;0.80;;;;;;;5.67;100.00;94788.91;10385782;28;20299;-78
2024/03/08 00:41:12;;;;;;;0.00;0.00;;;;;;;5.63;100.00;94788.56;10386422;28;20510;-77
2024/03/08 00:46:12;;;;;;;0.00;0.00;;;;;;;5.67;100.00;94783.59;10386477;28;20457;-78
2024/03/08 00:51:15;;;;;;;0.00;0.00;;;;;;;5.50;100.00;94776.38;10375907;28;20109;-78
2024/03/08 00:56:15;;;;;;;0.00;0.00;;;;;;;5.57;100.00;94776.22;10344737;28;20030;-78
2024/03/08 01:01:15;;;;;;;0.00;0.00;;;;;;;5.54;100.00;94766.00;10326771;28;20389;-77
2024/03/08 01:06:16;;;;;;;0.00;0.00;;;;;;;5.55;100.00;94763.09;10365056;28;20779;-76
2024/03/08 01:11:17;;;;;;;0.00;0.00;;;;;;;5.52;100.00;94760.94;10384974;28;20562;-78
2024/03/08 01:16:17;;;;;;;0.35;0.15;;;;;;;5.53;100.00;94751.09;10385311;28;20468;-79
2024/03/08 01:21:17;;;;;;;0.00;0.00;;;;;;;5.39;100.00;94759.38;10384224;28;20029;-80
2024/03/08 01:26:18;;;;;;;0.00;0.00;;;;;;;5.48;100.00;94747.28;10384907;28;20113;-77
2024/03/08 01:31:18;;;;;;;0.00;0.00;;;;;;;5.44;100.00;94748.00;10382795;28;20198;-77
2024/03/08 01:36:19;;;;;;;0.00;0.00;;;;;;;5.42;100.00;94748.22;10384455;28;20276;-77
2024/03/08 01:41:19;;;;;;;0.00;0.00;;;;;;;5.40;100.00;94744.19;10383881;28;20268;-77
2024/03/08 01:46:24;;;;;;;0.00;0.00;;;;;;;5.42;100.00;94744.78;10385653;28;20506;-79
2024/03/08 01:51:24;;;;;;;0.00;0.00;;;;;;;5.30;100.00;94745.66;10374237;28;20044;-78
2024/03/08 01:56:25;;;;;;;0.00;0.00;;;;;;;5.32;100.00;94742.75;10343265;28;20028;-78
2024/03/08 02:01:27;;;;;;;0.00;0.00;;;;;;;5.43;100.00;94736.53;10343274;28;20036;-78
2024/03/08 02:06:27;;;;;;;0.00;0.00;;;;;;;5.34;100.00;94731.84;10325123;28;20034;-78
2024/03/08 02:11:28;;;;;;;0.00;0.00;;;;;;;5.30;100.00;94740.31;10342979;28;20056;-78
2024/03/08 02:16:28;;;;;;;0.00;0.00;;;;;;;5.25;100.00;94742.06;10342752;28;20037;-77
2024/03/08 02:21:29;;;;;;;0.00;0.00;;;;;;;5.33;100.00;94741.69;10324436;28;20125;-78
2024/03/08 02:26:30;;;;;;;0.00;0.00;;;;;;;5.31;100.00;94743.78;10341104;28;20084;-78
2024/03/08 02:31:30;;;;;;;0.00;0.00;;;;;;;5.35;100.00;94742.25;10324073;28;20065;-79
2024/03/08 02:36:34;;;;;;;0.00;0.00;;;;;;;5.37;100.00;94745.50;10341757;28;20113;-78
2024/03/08 02:41:34;;;;;;;0.00;0.00;;;;;;;5.29;100.00;94754.69;10323606;28;20026;-78
2024/03/08 02:46:35;;;;;;;0.00;0.00;;;;;;;5.26;100.00;94759.66;10341118;28;20037;-77
2024/03/08 02:51:36;;;;;;;0.00;0.00;;;;;;;5.25;100.00;94756.19;10340690;28;20279;-76
2024/03/08 02:56:37;;;;;;;0.00;0.00;;;;;;;4.92;100.00;94749.72;10340759;28;20504;-77
2024/03/08 03:01:38;;;;;;;0.00;0.00;;;;;;;4.78;100.00;94757.16;10340945;28;20022;-76
2024/03/08 03:06:38;;;;;;;0.00;0.00;;;;;;;4.76;100.00;94763.81;10341037;28;20436;-78
2024/03/08 03:11:39;;;;;;;0.00;0.00;;;;;;;4.91;100.00;94769.44;10340915;28;20095;-76
2024/03/08 03:16:40;;;;;;;0.00;0.00;;;;;;;4.65;100.00;94775.25;10341406;28;20137;-77
2024/03/08 03:21:43;;;;;;;0.00;0.00;;;;;;;4.49;100.00;94766.97;10323103;28;20100;-77
2024/03/08 03:26:43;;;;;;;0.00;0.00;;;;;;;4.24;100.00;94762.72;10341067;28;20026;-77
2024/03/08 03:31:46;;;;;;;0.00;0.00;;;;;;;4.17;100.00;94772.69;10322438;28;20062;-77
2024/03/08 03:36:47;;;;;;;0.00;0.00;;;;;;;4.47;100.00;94777.03;10327018;28;20040;-77
2024/03/08 03:41:49;;;;;;;0.00;0.00;;;;;;;4.62;100.00;94788.00;10347910;28;20033;-78
2024/03/08 03:46:50;;;;;;;0.00;0.00;;;;;;;4.81;100.00;94781.72;10329477;28;20383;-77
2024/03/08 03:51:50;;;;;;;0.00;0.00;;;;;;;4.80;100.00;94783.59;10362157;28;20391;-77
2024/03/08 03:56:53;;;;;;;0.00;0.00;;;;;;;4.82;100.00;94786.81;10389972;28;20045;-79
2024/03/08 04:01:54;;;;;;;2.70;2.60;;;;;;;4.84;100.00;94792.69;10393064;28;20048;-80
2024/03/08 04:06:54;;;;;;;0.65;0.65;;;;;;;4.80;100.00;94794.25;10393351;28;20128;-81
2024/03/08 04:11:56;;;;;;;4.88;4.65;;;;;;;4.90;100.00;94801.63;10393793;28;20038;-80
2024/03/08 04:16:56;;;;;;;6.65;6.15;;;;;;;5.00;100.00;94806.34;10392473;28;20363;-78
2024/03/08 04:21:57;;;;;;;2.08;1.98;;;;;;;4.91;100.00;94808.53;10364002;28;20098;-79
2024/03/08 04:26:58;;;;;;;7.47;7.17;;;;;;;4.94;100.00;94806.25;10388875;28;20030;-79
2024/03/08 04:31:59;;;;;;;2.90;2.72;;;;;;;4.97;100.00;94813.75;10388839;28;20836;-80
2024/03/08 04:37:00;;;;;;;0.10;0.10;;;;;;;5.03;100.00;94819.19;10389075;28;20055;-79
2024/03/08 04:42:09;;;;;;;0.93;0.93;;;;;;;5.08;100.00;94832.59;10388023;28;21059;-78
2024/03/08 04:47:10;;;;;;;0.30;0.30;;;;;;;5.07;100.00;94826.47;10386086;28;20036;-78
2024/03/08 04:52:12;;;;;;;0.85;0.85;;;;;;;5.13;100.00;94830.03;10388330;28;20022;-79
2024/03/08 04:57:12;;;;;;;0.25;0.25;;;;;;;5.07;100.00;94828.31;10390259;28;20083;-79
2024/03/08 05:02:12;;;;;;;0.90;0.90;;;;;;;5.06;100.00;94840.81;10387263;28;20430;-80
2024/03/08 05:07:15;;;;;;;0.75;0.75;;;;;;;5.09;100.00;94850.19;10371379;28;20127;-80
2024/03/08 05:12:15;;;;;;;0.85;0.85;;;;;;;5.08;100.00;94843.25;10391361;28;20029;-81
2024/03/08 05:17:17;;;;;;;0.43;0.43;;;;;;;4.89;100.00;94854.06;10391575;28;20025;-80
2024/03/08 05:22:18;;;;;;;0.10;0.10;;;;;;;5.00;100.00;94849.75;10390114;28;20288;-79
2024/03/08 05:27:19;;;;;;;0.00;0.00;;;;;;;5.07;100.00;94865.63;10335666;23;20265;-79
2024/03/08 05:32:20;;;;;;;0.32;0.32;;;;;;;5.08;100.00;94880.53;10339134;28;20398;-75
2024/03/08 05:37:20;;;;;;;0.20;0.20;;;;;;;5.10;100.00;94883.78;10336930;28;20040;-80
2024/03/08 05:42:21;;;;;;;0.00;0.00;;;;;;;4.99;100.00;94885.41;10320230;28;20539;-81
2024/03/08 05:47:21;;;;;;;0.00;0.00;;;;;;;4.90;100.00;94903.63;10319160;28;20042;-80
2024/03/08 05:52:21;;;;;;;0.00;0.00;;;;;;;4.88;100.00;94908.34;10319937;28;20030;-76
2024/03/08 05:57:23;;;;;;;0.00;0.00;;;;;;;4.73;100.00;94908.00;10334441;28;20038;-79
2024/03/08 06:02:23;;;;;;;0.00;0.00;;;;;;;4.61;100.00;94913.34;10314447;28;20034;-76
2024/03/08 06:07:24;;;;;;;0.00;0.00;;;;;;;4.52;100.00;94926.19;10315454;28;20026;-80
2024/03/08 06:12:28;;;;;;;0.00;0.00;;;;;;;4.52;100.00;94928.88;10300287;28;20353;-81
2024/03/08 06:17:29;;;;;;;0.00;0.00;;;;;;;4.54;100.00;94936.63;10317817;28;20098;-80
2024/03/08 06:22:30;;;;;;;0.47;0.30;;;;;;;4.48;100.00;94938.34;10335233;28;20030;-81
2024/03/08 06:27:33;;;;;;;0.68;0.30;;;;;;;4.59;100.00;94942.88;10317985;28;20301;-76
2024/03/08 06:32:35;;;;;;;0.00;0.00;;;;;;;4.59;100.00;94937.53;10312428;28;20027;-78
2024/03/08 06:37:35;;;;;;;0.00;0.00;;;;;;;4.56;100.00;94946.00;10292782;28;20026;-81
2024/03/08 06:42:36;;;;;;;0.20;0.20;;;;;;;4.75;100.00;94960.00;10292748;28;20396;-75
2024/03/08 06:47:36;;;;;;;1.80;0.83;;;;;;;4.90;100.00;94946.22;10292736;28;20101;-75
2024/03/08 06:52:38;;;;;;;0.20;0.20;;;;;;;4.89;100.00;94947.25;10313509;28;20031;-80
2024/03/08 06:57:40;;;;;;;0.75;0.75;;;;;;;5.02;100.00;94953.41;10317219;28;20460;-76
2024/03/08 07:02:42;;;;;;;0.00;0.00;;;;;;;5.21;100.00;94959.41;10300259;28;20030;-81
2024/03/08 07:07:42;;;;;;;0.10;0.10;;;;;;;5.27;100.00;94961.13;10305514;28;20039;-83
2024/03/08 07:12:43;;;;;;;0.30;0.30;;;;;;;5.33;100.00;94959.38;10284209;28;20536;-78
2024/03/08 07:17:44;;;;;;;0.57;0.57;;;;;;;5.43;100.00;94960.41;10285094;28;20259;-76
2024/03/08 07:22:47;;;;;;;1.15;1.15;;;;;;;5.59;100.00;94960.72;10299395;28;20030;-76
2024/03/08 07:27:48;;;;;;;1.10;1.10;;;;;;;5.90;100.00;94967.50;10299828;28;20038;-76
2024/03/08 07:32:49;;;;;;;2.03;1.92;;;;;;;6.09;100.00;94959.31;10284375;28;20074;-80
2024/03/08 07:37:49;;;;;;;5.17;4.87;;;;;;;6.24;100.00;94962.25;10285034;28;20121;-77
2024/03/08 07:42:50;;;;;;;0.88;0.88;;;;;;;6.38;100.00;94973.44;10299783;28;20286;-75
2024/03/08 07:47:50;;;;;;;0.00;0.00;;;;;;;6.62;100.00;94962.63;10283180;28;20042;-77
2024/03/08 07:52:51;;;;;;;0.00;0.00;;;;;;;6.76;100.00;94968.44;10307336;28;20022;-74
2024/03/08 07:57:51;;;;;;;0.10;0.10;;;;;;;6.90;100.00;94966.25;10339480;28;20128;-76
2024/03/08 08:02:51;;;;;;;0.17;0.17;;;;;;;7.23;100.00;94970.75;10339978;28;20134;-75
2024/03/08 08:07:52;;;;;;;0.10;0.10;;;;;;;7.22;100.00;94965.66;10339028;28;20285;-76
2024/03/08 08:12:53;;;;;;;1.13;1.13;;;;;;;7.45;100.00;94964.63;10324355;28;20320;-79
2024/03/08 08:17:53;;;;;;;0.37;0.37;;;;;;;7.97;100.00;94968.75;10339298;28;20927;-82
2024/03/08 08:22:55;;;;;;;0.08;0.00;;;;;;;8.27;100.00;94962.88;10339379;28;20301;-82
2024/03/08 08:27:55;;;;;;;1.20;1.17;;;;;;;8.48;100.00;94957.75;10324742;28;20037;-75
2024/03/08 08:32:58;;;;;;;0.00;0.00;;;;;;;8.36;100.00;94958.69;10324350;28;20033;-76
2024/03/08 08:37:58;;;;;;;1.65;1.35;;;;;;;8.32;100.00;94962.94;10324321;28;20696;-79
2024/03/08 08:42:59;;;;;;;0.00;0.00;;;;;;;8.23;100.00;94953.72;10338608;28;20117;-78
2024/03/08 08:48:00;;;;;;;0.38;0.00;;;;;;;8.47;100.00;94951.59;10338275;28;20030;-81
2024/03/08 08:53:00;;;;;;;0.80;0.00;;;;;;;9.04;100.00;94947.50;10321914;28;20556;-80
2024/03/08 08:58:01;;;;;;;0.00;0.00;;;;;;;9.61;100.00;94938.94;10325406;28;20027;-77
2024/03/08 09:03:02;;;;;;;0.68;0.00;;;;;;;10.37;100.00;94938.38;10336828;28;20031;-80
2024/03/08 09:08:02;;;;;;;4.72;0.00;;;;;;;11.03;100.00;94936.00;10320023;28;20057;-76
2024/03/08 09:13:04;;;;;;;3.85;0.10;;;;;;;11.40;100.00;94934.81;10319327;28;20018;-82
2024/03/08 09:18:05;;;;;;;0.00;0.00;;;;;;;11.52;98.07;94938.03;10335639;28;20090;-75
2024/03/08 09:23:06;;;;;;;4.47;4.18;;;;;;;11.62;96.31;94938.00;10321505;28;20433;-82
2024/03/08 09:28:06;;;;;;;0.00;0.00;;;;;;;11.43;84.72;94942.38;10319801;28;20041;-76
2024/03/08 09:33:07;;;;;;;0.00;0.00;;;;;;;11.26;88.77;94934.59;10335329;28;20188;-76
2024/03/08 09:38:12;;;;;;;0.00;0.00;;;;;;;10.72;88.18;94936.81;10319884;28;20026;-81
2024/03/08 09:43:13;;;;;;;1.85;1.75;;;;;;;10.85;87.34;94926.59;10322740;28;20337;-75
2024/03/08 09:48:14;;;;;;;0.28;0.28;;;;;;;10.44;85.06;94932.75;10337374;28;20022;-77
2024/03/08 09:53:16;;;;;;;0.00;0.00;;;;;;;12.12;90.80;94930.00;10337387;28;20416;-77
2024/03/08 10:03:20;;;;;;;0.00;0.00;;;;;;;12.09;72.11;94925.16;10320029;28;20034;-75
2024/03/08 10:08:20;;;;;;;0.00;0.00;;;;;;;11.53;73.99;94928.09;10320443;28;20026;-81
2024/03/08 10:13:21;;;;;;;0.00;0.00;;;;;;;11.11;84.44;94925.47;10328132;28;20026;-78
2024/03/08 10:18:21;;;;;;;0.00;0.00;;;;;;;10.55;90.74;94925.53;10294679;28;20827;-76
2024/03/08 10:23:23;;;;;;;3.03;2.83;;;;;;;10.63;95.10;94926.84;10278479;28;20138;-79
2024/03/08 10:28:24;;;;;;;0.95;0.95;;;;;;;11.32;90.69;94922.75;10295132;28;20030;-77
2024/03/08 10:33:25;;;;;;;0.08;0.08;;;;;;;11.69;84.37;94915.38;10281421;28;20023;-80
2024/03/08 10:38:26;;;;;;;5.25;4.95;;;;;;;12.42;79.03;94916.59;10277833;28;20557;-75
2024/03/08 10:43:31;;;;;;;4.03;3.85;;;;;;;11.46;73.62;94918.41;10295466;28;20030;-80
2024/03/08 10:48:32;;;;;;;0.00;0.00;;;;;;;11.42;70.95;94917.34;10304520;28;20058;-77
2024/03/08 10:53:33;;;;;;;1.85;1.75;;;;;;;11.64;70.36;94908.13;10316798;28;20117;-76
2024/03/08 10:58:35;;;;;;;0.00;0.00;;;;;;;11.90;73.41;94894.53;10327533;28;20140;-81
2024/03/08 11:03:45;;;;;;;0.00;0.00;;;;;;;11.91;69.29;94899.63;10341716;28;20049;-77
2024/03/08 11:08:46;;;;;;;0.00;0.00;;;;;;;11.60;77.63;94890.91;10326042;28;20030;-85
2024/03/08 11:13:46;;;;;;;0.00;0.00;;;;;;;11.11;87.80;94890.50;10324401;28;20113;-81
2024/03/08 11:18:47;;;;;;;5.03;2.42;;;;;;;11.37;84.12;94882.38;10324739;28;20034;-75
2024/03/08 11:24:01;;;;;;;3.45;3.22;;;;;;;11.29;78.41;94893.72;10323638;28;20054;-81
2024/03/08 11:29:36;;;;;;;1.77;0.93;;;;;;;11.25;81.72;94887.25;10339768;28;20034;-77
2024/03/08 11:34:38;;;;;;;4.45;0.00;;;;;;;13.49;66.18;94865.50;10324897;28;20030;-82
2024/03/08 11:39:52;;;;;;;0.70;0.00;;;;;;;16.99;48.76;94850.19;10324065;28;20553;-79
2024/03/08 11:44:53;;;;;;;0.55;0.00;;;;;;;16.90;47.38;94845.50;10323278;28;20029;-78
2024/03/08 11:49:53;;;;;;;9.07;0.10;;;;;;;14.47;48.53;94851.47;10322047;28;20065;-77
2024/03/08 11:54:56;;;;;;;1.80;1.17;;;;;;;13.70;56.84;94854.44;10337933;28;20133;-75
2024/03/08 11:59:58;;;;;;;2.55;0.00;;;;;;;13.05;60.78;94858.41;10338478;28;20277;-75
2024/03/08 12:05:00;;;;;;;1.45;0.00;;;;;;;12.38;67.79;94861.69;10321580;28;20100;-84
2024/03/08 12:10:24;;;;;;;0.95;0.95;;;;;;;11.98;75.14;94856.28;10323382;28;20026;-78
2024/03/08 12:15:25;;;;;;;0.55;0.00;;;;;;;11.76;63.97;94854.75;10323385;28;20026;-75
2024/03/08 12:20:30;;;;;;;1.85;1.75;;;;;;;11.52;69.31;94859.19;10337176;28;20102;-77
2024/03/08 12:25:35;;;;;;;0.47;0.47;;;;;;;11.36;65.96;94850.34;10320948;28;20050;-77
2024/03/08 12:30:35;;;;;;;1.30;1.27;;;;;;;10.94;72.38;94857.75;10322174;28;20525;-83
2024/03/08 12:35:37;;;;;;;0.77;0.00;;;;;;;10.33;77.85;94843.25;10320658;28;20019;-78
2024/03/08 12:40:41;;;;;;;0.00;0.00;;;;;;;10.56;80.53;94836.56;10322021;28;20034;-77
2024/03/08 12:45:42;;;;;;;0.65;0.65;;;;;;;10.45;81.75;94839.53;10337100;28;20509;-77
2024/03/08 12:50:47;;;;;;;0.52;0.52;;;;;;;10.55;76.84;94839.53;10335850;28;20022;-78
2024/03/08 12:55:48;;;;;;;3.72;0.00;;;;;;;10.71;78.51;94835.72;10319707;28;20033;-78
2024/03/08 13:00:49;;;;;;;1.75;1.67;;;;;;;10.90;75.86;94833.28;10319274;28;20026;-77
2024/03/08 13:05:49;;;;;;;0.00;0.00;;;;;;;10.89;75.33;94837.03;10335556;28;20485;-78
2024/03/08 13:10:50;;;;;;;0.00;0.00;;;;;;;10.69;72.24;94829.81;10318732;28;20488;-77
2024/03/08 13:15:51;;;;;;;2.97;0.73;;;;;;;10.66;75.61;94841.13;10319955;28;20146;-77
2024/03/08 13:20:51;;;;;;;0.00;0.00;;;;;;;10.36;78.73;94839.25;10335093;28;20172;-78
2024/03/08 13:25:52;;;;;;;0.00;0.00;;;;;;;10.55;73.73;94840.31;10302368;28;20344;-77
2024/03/08 13:30:52;;;;;;;0.00;0.00;;;;;;;10.48;75.14;94828.22;10317686;28;20476;-78
2024/03/08 13:35:53;;;;;;;0.27;0.00;;;;;;;10.46;68.95;94825.81;10334493;28;20084;-84
2024/03/08 13:40:53;;;;;;;0.00;0.00;;;;;;;10.05;75.52;94837.31;10319843;28;20296;-77
2024/03/08 13:45:55;;;;;;;0.00;0.00;;;;;;;10.06;77.12;94824.69;10318939;28;20037;-80
2024/03/08 13:50:57;;;;;;;1.65;0.00;;;;;;;9.77;74.01;94837.81;10319735;28;20307;-78
2024/03/08 13:55:57;;;;;;;0.03;0.00;;;;;;;9.35;78.21;94826.97;10334506;28;20505;-77
2024/03/08 14:01:00;;;;;;;0.00;0.00;;;;;;;9.52;79.68;94832.13;10334205;28;20153;-82
2024/03/08 14:06:00;;;;;;;0.00;0.00;;;;;;;9.45;85.63;94828.09;10334075;28;20105;-77
2024/03/08 14:11:10;;;;;;;0.43;0.00;;;;;;;9.59;84.82;94826.50;10302328;28;20039;-77
2024/03/08 14:16:15;;;;;;;0.00;0.00;;;;;;;9.66;86.28;94834.31;10261703;28;20174;-77
2024/03/08 14:21:15;;;;;;;0.00;0.00;;;;;;;9.60;86.58;94830.00;10292338;28;20370;-76
2024/03/08 14:26:15;;;;;;;0.00;0.00;;;;;;;9.74;91.46;94821.19;10260472;28;20062;-77
2024/03/08 14:31:18;;;;;;;0.17;0.00;;;;;;;9.70;90.72;94825.47;10276341;28;20046;-77
2024/03/08 14:36:23;;;;;;;0.00;0.00;;;;;;;9.67;89.03;94819.81;10292079;28;20405;-77
2024/03/08 14:41:23;;;;;;;0.00;0.00;;;;;;;9.68;90.73;94821.44;10276707;28;20065;-78
2024/03/08 14:46:24;;;;;;;0.00;0.00;;;;;;;9.62;92.76;94828.66;10275621;28;20565;-77
2024/03/08 14:51:26;;;;;;;0.20;0.00;;;;;;;9.59;94.36;94831.88;10288104;28;20261;-78
2024/03/08 14:56:27;;;;;;;0.00;0.00;;;;;;;9.13;100.00;94832.50;10333506;28;20029;-76
2024/03/08 15:01:29;;;;;;;1.75;1.65;;;;;;;9.02;100.00;94839.69;10317535;28;20461;-76
2024/03/08 15:06:31;;;;;;;6.40;4.28;;;;;;;9.03;98.54;94833.28;10332256;28;20173;-77
2024/03/08 15:11:31;;;;;;;0.00;0.00;;;;;;;8.85;99.66;94839.06;10332827;28;20552;-77
2024/03/08 15:16:32;;;;;;;0.53;0.00;;;;;;;8.68;100.00;94839.25;10315990;28;20030;-80
2024/03/08 15:21:32;;;;;;;0.22;0.00;;;;;;;8.65;100.00;94843.25;10316233;28;20865;-78
2024/03/08 15:26:32;;;;;;;0.00;0.00;;;;;;;8.52;100.00;94847.16;10316425;28;20054;-77
2024/03/08 15:31:34;;;;;;;1.40;1.10;;;;;;;8.31;100.00;94845.38;10319544;28;20030;-76
2024/03/08 15:36:34;;;;;;;0.00;0.00;;;;;;;8.34;100.00;94840.31;10324655;28;20326;-81
2024/03/08 15:41:35;;;;;;;0.20;0.00;;;;;;;8.11;100.00;94860.19;10340074;28;20501;-77
2024/03/08 15:46:36;;;;;;;1.80;0.00;;;;;;;8.00;100.00;94855.81;10323988;28;20034;-78
2024/03/08 15:51:36;;;;;;;2.63;2.47;;;;;;;7.51;100.00;94865.50;10322307;28;20709;-80
2024/03/08 15:56:37;;;;;;;2.93;2.73;;;;;;;7.26;100.00;94875.91;10314361;28;20023;-76
2024/03/08 16:01:38;;;;;;;1.73;1.63;;;;;;;7.26;100.00;94886.59;10279571;28;20273;-80
2024/03/08 16:06:39;;;;;;;5.97;5.57;;;;;;;7.18;100.00;94885.13;10281214;28;20023;-83
2024/03/08 16:11:40;;;;;;;1.65;1.55;;;;;;;7.11;100.00;94889.88;10283557;28;20817;-82
2024/03/08 16:16:41;;;;;;;3.20;0.00;;;;;;;6.95;100.00;94895.00;10275372;28;20151;-78
2024/03/08 16:21:41;;;;;;;5.32;5.00;;;;;;;6.76;100.00;94904.34;10275629;28;20045;-76
2024/03/08 16:26:41;;;;;;;0.00;0.00;;;;;;;6.57;100.00;94890.44;10279861;28;20445;-82
2024/03/08 16:31:44;;;;;;;0.00;0.00;;;;;;;6.52;100.00;94901.03;10278977;28;20587;-77
2024/03/08 16:36:45;;;;;;;0.00;0.00;;;;;;;6.36;100.00;94900.78;10278198;28;20110;-77
2024/03/08 16:41:47;;;;;;;0.00;0.00;;;;;;;6.40;100.00;94911.78;10281206;28;20034;-76
2024/03/08 16:46:49;;;;;;;0.00;0.00;;;;;;;6.42;100.00;94915.03;10281105;28;20042;-77
2024/03/08 16:51:50;;;;;;;0.00;0.00;;;;;;;6.35;100.00;94920.53;10297002;28;20034;-77
2024/03/08 16:56:50;;;;;;;0.00;0.00;;;;;;;6.28;100.00;94926.03;10324206;28;20023;-82
2024/03/08 17:01:51;;;;;;;5.88;5.55;;;;;;;6.19;100.00;94937.34;10320767;28;20053;-76
2024/03/08 17:06:53;;;;;;;3.45;3.30;;;;;;;6.24;100.00;94940.91;10321548;28;20053;-81
2024/03/08 17:11:53;;;;;;;5.57;5.28;;;;;;;6.19;100.00;94948.00;10336342;28;20077;-78
2024/03/08 17:16:54;;;;;;;2.05;0.00;;;;;;;6.23;100.00;94947.28;10323472;28;20113;-79
2024/03/08 17:21:56;;;;;;;4.97;4.72;;;;;;;6.20;100.00;94938.97;10325215;28;20142;-81
2024/03/08 17:26:56;;;;;;;11.83;11.13;;;;;;;6.08;100.00;94950.47;10320621;28;20078;-77
2024/03/08 17:31:58;;;;;;;3.13;2.92;;;;;;;6.11;100.00;94943.88;10337918;28;20319;-82
2024/03/08 17:36:58;;;;;;;1.63;1.55;;;;;;;6.14;100.00;94954.06;10319873;28;20033;-78
2024/03/08 17:42:01;;;;;;;4.38;4.18;;;;;;;6.14;100.00;94946.88;10336598;28;20026;-77
2024/03/08 17:47:02;;;;;;;3.20;3.00;;;;;;;6.05;100.00;94950.97;10317687;28;20029;-78
2024/03/08 17:52:04;;;;;;;1.98;1.85;;;;;;;6.04;100.00;94951.22;10335249;28;20038;-78
2024/03/08 17:57:05;;;;;;;0.00;0.00;;;;;;;5.85;100.00;94951.38;10334899;28;20026;-83
2024/03/08 18:02:05;;;;;;;6.28;5.93;;;;;;;5.86;100.00;94961.00;10334116;28;20034;-76
2024/03/08 18:07:07;;;;;;;0.00;0.00;;;;;;;5.56;100.00;94964.69;10319380;28;20421;-80
2024/03/08 18:12:08;;;;;;;0.10;0.10;;;;;;;5.21;100.00;94964.75;10320198;28;20038;-77
2024/03/08 18:17:11;;;;;;;0.60;0.57;;;;;;;5.27;100.00;94964.63;10333968;28;20034;-81
2024/03/08 18:22:11;;;;;;;1.35;1.35;;;;;;;5.26;100.00;94971.00;10322677;28;20061;-78
2024/03/08 18:27:12;;;;;;;0.00;0.00;;;;;;;5.34;100.00;94961.03;10317049;28;20140;-80
2024/03/08 18:32:12;;;;;;;0.40;0.40;;;;;;;5.27;100.00;94961.97;10333683;28;20329;-76
2024/03/08 18:37:12;;;;;;;0.32;0.32;;;;;;;5.21;100.00;94954.88;10333463;28;20305;-77
2024/03/08 18:42:13;;;;;;;0.00;0.00;;;;;;;4.77;100.00;94965.91;10334325;28;20478;-83
2024/03/08 18:47:13;;;;;;;6.32;5.88;;;;;;;4.62;100.00;94963.69;10333294;28;20669;-78
2024/03/08 18:52:13;;;;;;;5.50;5.17;;;;;;;3.50;100.00;94975.72;10316147;28;20042;-80
2024/03/08 18:57:15;;;;;;;3.42;3.22;;;;;;;3.45;100.00;94975.56;10318044;28;20352;-77
2024/03/08 19:02:16;;;;;;;2.72;2.63;;;;;;;3.38;100.00;94986.25;10333139;28;20411;-79
2024/03/08 19:07:16;;;;;;;4.65;4.05;;;;;;;3.32;100.00;94971.22;10337452;28;20093;-79
2024/03/08 19:12:18;;;;;;;2.08;1.98;;;;;;;3.40;100.00;94978.06;10326934;28;20026;-77
2024/03/08 19:17:19;;;;;;;3.90;3.28;;;;;;;3.47;100.00;94989.41;10308279;28;20484;-79
2024/03/08 19:22:20;;;;;;;3.47;3.30;;;;;;;3.47;100.00;94976.13;10341277;28;20031;-77
2024/03/08 19:27:20;;;;;;;2.20;2.10;;;;;;;3.75;100.00;94985.41;10287728;28;20047;-77
2024/03/08 19:32:20;;;;;;;5.00;4.28;;;;;;;3.40;100.00;94991.34;10299704;28;20034;-81
2024/03/08 19:37:21;;;;;;;30.77;5.23;;;;;;;4.32;100.00;94981.56;10282839;28;20169;-77
2024/03/08 19:42:21;;;;;;;5.10;4.87;;;;;;;4.33;100.00;94988.53;10300014;28;20362;-77
2024/03/08 19:47:21;;;;;;;3.15;3.05;;;;;;;4.39;100.00;94984.94;10299332;28;20107;-77
2024/03/08 19:52:22;;;;;;;4.30;4.10;;;;;;;4.15;100.00;94992.84;10302777;28;20026;-77
2024/03/08 19:57:22;;;;;;;1.98;1.88;;;;;;;4.10;100.00;94992.72;10339546;28;20029;-77
2024/03/08 20:02:26;;;;;;;3.93;3.73;;;;;;;4.17;100.00;94996.13;10305058;28;20038;-78
2024/03/08 20:07:26;;;;;;;3.13;3.03;;;;;;;4.28;100.00;94990.03;10283520;28;20301;-77
2024/03/08 20:12:26;;;;;;;3.80;3.60;;;;;;;4.30;100.00;95003.09;10282397;28;20461;-78
2024/03/08 20:17:28;;;;;;;1.63;1.60;;;;;;;4.51;100.00;94992.94;10281960;28;20034;-75
2024/03/08 20:22:29;;;;;;;3.35;3.25;;;;;;;4.48;100.00;94999.56;10298361;28;20713;-76
2024/03/08 20:27:29;;;;;;;4.45;4.25;;;;;;;4.66;100.00;95003.16;10298300;28;20058;-78
2024/03/08 20:32:30;;;;;;;3.10;3.00;;;;;;;4.69;100.00;95010.69;10273267;28;20049;-77
2024/03/08 20:37:30;;;;;;;4.77;4.53;;;;;;;4.74;100.00;95011.63;10273704;28;20109;-76
2024/03/08 20:42:30;;;;;;;4.17;3.97;;;;;;;4.79;100.00;95018.94;10270082;28;20277;-76
2024/03/08 20:47:35;;;;;;;3.13;3.03;;;;;;;4.76;100.00;95006.09;10270726;28;20038;-76
2024/03/08 20:52:35;;;;;;;3.33;3.22;;;;;;;4.76;100.00;95009.56;10278656;28;20296;-81
2024/03/08 20:57:45;;;;;;;1.00;1.00;;;;;;;4.60;100.00;95016.38;10266456;28;20085;-83
2024/03/08 21:02:48;;;;;;;0.00;0.00;;;;;;;4.45;100.00;95008.81;10270973;28;20065;-74
2024/03/08 21:07:48;;;;;;;3.47;3.33;;;;;;;4.45;100.00;95011.47;10287732;28;20513;-77
2024/03/08 21:12:54;;;;;;;11.40;10.77;;;;;;;4.36;100.00;95009.34;10287939;28;20558;-80
2024/03/08 21:17:54;;;;;;;18.25;17.05;;;;;;;4.28;100.00;94999.84;10274063;28;20034;-81
2024/03/08 21:22:56;;;;;;;6.07;5.78;;;;;;;4.20;100.00;95006.31;10266091;28;20041;-78
2024/03/08 21:28:06;;;;;;;8.25;7.75;;;;;;;4.07;100.00;95009.13;10285577;28;20058;-78
2024/03/08 21:33:10;;;;;;;0.80;0.80;;;;;;;3.92;100.00;95012.19;10266704;28;20121;-78
2024/03/08 21:38:10;;;;;;;9.20;8.63;;;;;;;3.76;100.00;95010.97;10269180;28;20023;-77
2024/03/08 21:43:11;;;;;;;9.00;8.40;;;;;;;3.63;100.00;95005.78;10265738;28;20518;-77
2024/03/08 21:48:11;;;;;;;9.87;9.17;;;;;;;3.61;100.00;94995.38;10266357;28;20289;-75
2024/03/08 21:53:11;;;;;;;7.03;6.70;;;;;;;3.71;100.00;94993.03;10270196;28;20266;-78
2024/03/08 21:58:13;;;;;;;5.32;5.13;;;;;;;3.73;100.00;94990.16;10268934;28;20357;-78
2024/03/08 22:03:13;;;;;;;5.22;5.03;;;;;;;3.79;100.00;94991.09;10268415;28;20035;-79
2024/03/08 22:08:13;;;;;;;9.63;9.18;;;;;;;3.77;100.00;94986.00;10269183;28;20513;-77
2024/03/08 22:13:14;;;;;;;10.68;7.97;;;;;;;3.82;100.00;94988.78;10270399;28;20409;-77
2024/03/08 22:18:15;;;;;;;10.75;10.25;;;;;;;3.80;100.00;94988.22;10274833;28;20125;-77
2024/03/08 22:23:21;;;;;;;7.63;7.32;;;;;;;3.79;100.00;94983.94;10252634;28;20047;-84
2024/03/08 22:28:25;;;;;;;4.93;4.72;;;;;;;3.78;100.00;94990.28;10267290;28;20442;-77
2024/03/08 22:33:25;;;;;;;5.35;5.10;;;;;;;3.77;100.00;94991.31;10287809;28;20019;-78
2024/03/08 22:38:26;;;;;;;10.10;5.27;;;;;;;3.68;100.00;94990.81;10277746;28;20035;-78
2024/03/08 22:43:26;;;;;;;2.50;2.40;;;;;;;3.44;100.00;94983.75;10275700;28;20647;-77
2024/03/08 22:48:26;;;;;;;6.15;5.85;;;;;;;3.29;100.00;94989.44;10276186;28;20278;-77
2024/03/08 22:53:27;;;;;;;7.00;6.65;;;;;;;3.41;100.00;94979.69;10277585;28;20030;-77
2024/03/08 22:58:28;;;;;;;5.10;4.85;;;;;;;3.40;100.00;94989.50;10292495;28;20034;-75
2024/03/08 23:03:34;;;;;;;7.68;7.28;;;;;;;3.22;100.00;94992.97;10292654;28;20082;-78
2024/03/08 23:08:35;;;;;;;9.50;9.10;;;;;;;3.13;100.00;94993.47;10292952;28;20030;-78
2024/03/08 23:13:37;;;;;;;13.67;12.97;;;;;;;3.10;100.00;94994.72;10292354;28;20414;-85
2024/03/08 23:18:38;;;;;;;9.30;8.90;;;;;;;2.98;100.00;94993.81;10278557;28;20333;-78
2024/03/08 23:23:39;;;;;;;9.55;9.15;;;;;;;2.88;100.00;94987.16;10277445;28;20300;-84